sensor_id;sensor_type;location;lat;lon;timestamp;P1;durP1;ratioP1;P2;durP2;ratioP2
76978;SDS011;65911;47.502;19.148;2023-02-28T00:00:08;9.97;;;5.97;;
76978;SDS011;65911;47.502;19.148;2023-02-28T00:03:12;11.90;;;6.03;;
76978;SDS011;65911;47.502;19.148;2023-02-28T00:06:14;13.07;;;7.32;;
76978;SDS011;65911;47.502;19.148;2023-02-28T00:09:16;11.40;;;6.55;;
76978;SDS011;65911;47.502;19.148;2023-02-28T00:12:18;12.18;;;6.95;;
76978;SDS011;65911;47.502;19.148;2023-02-28T00:15:20;11.65;;;6.35;;
76978;SDS011;65911;47.502;19.148;2023-02-28T00:18:24;11.73;;;6.65;;
76978;SDS011;65911;47.502;19.148;2023-02-28T00:21:26;13.77;;;7.20;;
76978;SDS011;65911;47.502;19.148;2023-02-28T00:24:29;11.48;;;7.20;;
76978;SDS011;65911;47.502;19.148;2023-02-28T00:27:31;12.18;;;6.82;;
76978;SDS011;65911;47.502;19.148;2023-02-28T00:30:33;12.43;;;7.23;;
76978;SDS011;65911;47.502;19.148;2023-02-28T00:33:39;12.60;;;6.90;;
76978;SDS011;65911;47.502;19.148;2023-02-28T00:36:41;15.10;;;7.45;;
76978;SDS011;65911;47.502;19.148;2023-02-28T00:39:47;15.02;;;7.57;;
76978;SDS011;65911;47.502;19.148;2023-02-28T00:42:50;16.38;;;7.85;;
76978;SDS011;65911;47.502;19.148;2023-02-28T00:45:52;14.65;;;8.40;;
76978;SDS011;65911;47.502;19.148;2023-02-28T00:48:54;14.85;;;8.13;;
76978;SDS011;65911;47.502;19.148;2023-02-28T00:51:57;16.10;;;8.07;;
76978;SDS011;65911;47.502;19.148;2023-02-28T00:55:00;16.10;;;8.20;;
76978;SDS011;65911;47.502;19.148;2023-02-28T00:58:02;16.75;;;8.30;;
76978;SDS011;65911;47.502;19.148;2023-02-28T01:01:05;17.13;;;8.50;;
76978;SDS011;65911;47.502;19.148;2023-02-28T01:04:07;16.40;;;8.38;;
76978;SDS011;65911;47.502;19.148;2023-02-28T01:07:10;16.65;;;8.30;;
76978;SDS011;65911;47.502;19.148;2023-02-28T01:10:12;20.50;;;8.90;;
76978;SDS011;65911;47.502;19.148;2023-02-28T01:13:15;17.10;;;9.13;;
76978;SDS011;65911;47.502;19.148;2023-02-28T01:16:17;16.65;;;8.80;;
76978;SDS011;65911;47.502;19.148;2023-02-28T01:19:20;17.17;;;8.60;;
76978;SDS011;65911;47.502;19.148;2023-02-28T01:22:22;17.80;;;9.00;;
76978;SDS011;65911;47.502;19.148;2023-02-28T01:25:24;12.98;;;8.57;;
76978;SDS011;65911;47.502;19.148;2023-02-28T01:28:27;17.52;;;8.70;;
76978;SDS011;65911;47.502;19.148;2023-02-28T01:31:31;14.97;;;8.43;;
76978;SDS011;65911;47.502;19.148;2023-02-28T01:34:33;15.63;;;8.98;;
76978;SDS011;65911;47.502;19.148;2023-02-28T01:37:38;13.93;;;8.00;;
76978;SDS011;65911;47.502;19.148;2023-02-28T01:40:40;12.00;;;7.78;;
76978;SDS011;65911;47.502;19.148;2023-02-28T01:46:46;15.93;;;8.80;;
76978;SDS011;65911;47.502;19.148;2023-02-28T01:49:48;13.00;;;8.00;;
76978;SDS011;65911;47.502;19.148;2023-02-28T01:52:51;18.33;;;8.50;;
76978;SDS011;65911;47.502;19.148;2023-02-28T01:55:57;12.48;;;7.70;;
76978;SDS011;65911;47.502;19.148;2023-02-28T01:59:00;12.93;;;8.15;;
76978;SDS011;65911;47.502;19.148;2023-02-28T02:02:02;17.13;;;9.03;;
76978;SDS011;65911;47.502;19.148;2023-02-28T02:05:09;16.52;;;8.63;;
76978;SDS011;65911;47.502;19.148;2023-02-28T02:08:23;16.67;;;8.95;;
76978;SDS011;65911;47.502;19.148;2023-02-28T02:11:27;14.73;;;8.77;;
76978;SDS011;65911;47.502;19.148;2023-02-28T02:14:35;16.20;;;8.70;;
76978;SDS011;65911;47.502;19.148;2023-02-28T02:17:45;14.02;;;8.98;;
76978;SDS011;65911;47.502;19.148;2023-02-28T02:30:43;16.77;;;8.52;;
76978;SDS011;65911;47.502;19.148;2023-02-28T02:36:58;15.60;;;8.90;;
76978;SDS011;65911;47.502;19.148;2023-02-28T02:40:18;13.57;;;8.95;;
76978;SDS011;65911;47.502;19.148;2023-02-28T02:44:06;15.32;;;8.32;;
76978;SDS011;65911;47.502;19.148;2023-02-28T02:46:53;15.07;;;7.95;;
76978;SDS011;65911;47.502;19.148;2023-02-28T02:50:02;14.43;;;7.90;;
76978;SDS011;65911;47.502;19.148;2023-02-28T02:53:08;16.10;;;9.15;;
76978;SDS011;65911;47.502;19.148;2023-02-28T02:56:11;15.70;;;7.77;;
76978;SDS011;65911;47.502;19.148;2023-02-28T02:59:16;15.30;;;8.18;;
76978;SDS011;65911;47.502;19.148;2023-02-28T03:02:23;14.27;;;7.85;;
76978;SDS011;65911;47.502;19.148;2023-02-28T03:05:30;17.03;;;8.40;;
76978;SDS011;65911;47.502;19.148;2023-02-28T03:08:37;16.00;;;8.10;;
76978;SDS011;65911;47.502;19.148;2023-02-28T03:11:40;15.98;;;8.27;;
76978;SDS011;65911;47.502;19.148;2023-02-28T03:18:06;12.25;;;8.05;;
76978;SDS011;65911;47.502;19.148;2023-02-28T03:21:25;12.45;;;7.97;;
76978;SDS011;65911;47.502;19.148;2023-02-28T03:24:37;15.07;;;8.02;;
76978;SDS011;65911;47.502;19.148;2023-02-28T03:31:15;13.98;;;7.75;;
76978;SDS011;65911;47.502;19.148;2023-02-28T03:34:31;13.52;;;7.72;;
76978;SDS011;65911;47.502;19.148;2023-02-28T03:37:37;13.60;;;7.23;;
76978;SDS011;65911;47.502;19.148;2023-02-28T03:40:43;12.13;;;6.97;;
76978;SDS011;65911;47.502;19.148;2023-02-28T03:43:50;14.82;;;7.03;;
76978;SDS011;65911;47.502;19.148;2023-02-28T03:47:31;11.82;;;7.35;;
76978;SDS011;65911;47.502;19.148;2023-02-28T03:50:32;11.35;;;6.68;;
76978;SDS011;65911;47.502;19.148;2023-02-28T03:53:39;13.25;;;7.78;;
76978;SDS011;65911;47.502;19.148;2023-02-28T03:56:49;13.15;;;7.15;;
76978;SDS011;65911;47.502;19.148;2023-02-28T04:00:05;12.40;;;6.93;;
76978;SDS011;65911;47.502;19.148;2023-02-28T04:03:13;11.73;;;7.13;;
76978;SDS011;65911;47.502;19.148;2023-02-28T04:06:16;10.65;;;6.78;;
76978;SDS011;65911;47.502;19.148;2023-02-28T04:09:20;12.43;;;7.03;;
76978;SDS011;65911;47.502;19.148;2023-02-28T04:12:23;15.07;;;6.72;;
76978;SDS011;65911;47.502;19.148;2023-02-28T04:15:25;11.02;;;6.68;;
76978;SDS011;65911;47.502;19.148;2023-02-28T04:18:29;11.70;;;6.32;;
76978;SDS011;65911;47.502;19.148;2023-02-28T04:21:32;11.52;;;6.05;;
76978;SDS011;65911;47.502;19.148;2023-02-28T04:24:38;11.60;;;6.30;;
76978;SDS011;65911;47.502;19.148;2023-02-28T04:27:43;9.93;;;6.43;;
76978;SDS011;65911;47.502;19.148;2023-02-28T04:30:56;10.20;;;6.17;;
76978;SDS011;65911;47.502;19.148;2023-02-28T04:33:59;11.38;;;6.22;;
76978;SDS011;65911;47.502;19.148;2023-02-28T04:37:02;10.93;;;5.93;;
76978;SDS011;65911;47.502;19.148;2023-02-28T04:40:14;10.60;;;6.30;;
76978;SDS011;65911;47.502;19.148;2023-02-28T04:43:17;9.50;;;5.75;;
76978;SDS011;65911;47.502;19.148;2023-02-28T04:46:19;11.70;;;6.75;;
76978;SDS011;65911;47.502;19.148;2023-02-28T04:49:21;12.95;;;6.50;;
76978;SDS011;65911;47.502;19.148;2023-02-28T04:52:23;11.95;;;6.82;;
76978;SDS011;65911;47.502;19.148;2023-02-28T04:55:26;10.65;;;6.10;;
76978;SDS011;65911;47.502;19.148;2023-02-28T04:58:28;11.07;;;6.80;;
76978;SDS011;65911;47.502;19.148;2023-02-28T05:01:32;10.30;;;6.17;;
76978;SDS011;65911;47.502;19.148;2023-02-28T05:04:35;10.57;;;6.38;;
76978;SDS011;65911;47.502;19.148;2023-02-28T05:07:38;10.45;;;5.82;;
76978;SDS011;65911;47.502;19.148;2023-02-28T05:10:40;13.00;;;6.50;;
76978;SDS011;65911;47.502;19.148;2023-02-28T05:13:42;10.35;;;5.68;;
76978;SDS011;65911;47.502;19.148;2023-02-28T05:16:45;12.32;;;6.28;;
76978;SDS011;65911;47.502;19.148;2023-02-28T05:19:47;11.60;;;6.43;;
76978;SDS011;65911;47.502;19.148;2023-02-28T05:22:49;11.52;;;6.00;;
76978;SDS011;65911;47.502;19.148;2023-02-28T05:25:51;10.75;;;6.40;;
76978;SDS011;65911;47.502;19.148;2023-02-28T05:28:54;9.07;;;5.75;;
76978;SDS011;65911;47.502;19.148;2023-02-28T05:31:56;10.40;;;5.40;;
76978;SDS011;65911;47.502;19.148;2023-02-28T05:34:59;9.20;;;5.85;;
76978;SDS011;65911;47.502;19.148;2023-02-28T05:38:01;9.63;;;5.38;;
76978;SDS011;65911;47.502;19.148;2023-02-28T05:41:09;13.23;;;5.50;;
76978;SDS011;65911;47.502;19.148;2023-02-28T05:44:12;9.93;;;5.03;;
76978;SDS011;65911;47.502;19.148;2023-02-28T05:47:14;9.45;;;5.32;;
76978;SDS011;65911;47.502;19.148;2023-02-28T05:50:17;9.40;;;5.07;;
76978;SDS011;65911;47.502;19.148;2023-02-28T05:53:19;7.93;;;5.30;;
76978;SDS011;65911;47.502;19.148;2023-02-28T05:56:22;9.27;;;4.97;;
76978;SDS011;65911;47.502;19.148;2023-02-28T05:59:24;10.13;;;5.40;;
76978;SDS011;65911;47.502;19.148;2023-02-28T06:02:26;11.43;;;4.90;;
76978;SDS011;65911;47.502;19.148;2023-02-28T06:05:28;9.23;;;5.68;;
76978;SDS011;65911;47.502;19.148;2023-02-28T06:08:31;9.05;;;5.22;;
76978;SDS011;65911;47.502;19.148;2023-02-28T06:11:33;8.50;;;4.87;;
76978;SDS011;65911;47.502;19.148;2023-02-28T06:14:35;7.80;;;4.72;;
76978;SDS011;65911;47.502;19.148;2023-02-28T06:17:38;8.52;;;4.70;;
76978;SDS011;65911;47.502;19.148;2023-02-28T06:20:40;8.52;;;5.72;;
76978;SDS011;65911;47.502;19.148;2023-02-28T06:23:42;7.82;;;4.78;;
76978;SDS011;65911;47.502;19.148;2023-02-28T06:26:44;8.88;;;5.22;;
76978;SDS011;65911;47.502;19.148;2023-02-28T06:29:47;9.73;;;4.93;;
76978;SDS011;65911;47.502;19.148;2023-02-28T06:32:49;8.13;;;4.90;;
76978;SDS011;65911;47.502;19.148;2023-02-28T06:35:51;10.73;;;5.30;;
76978;SDS011;65911;47.502;19.148;2023-02-28T06:38:54;12.05;;;5.30;;
76978;SDS011;65911;47.502;19.148;2023-02-28T06:41:57;11.03;;;5.43;;
76978;SDS011;65911;47.502;19.148;2023-02-28T06:45:00;10.73;;;5.43;;
76978;SDS011;65911;47.502;19.148;2023-02-28T06:48:05;11.60;;;5.70;;
76978;SDS011;65911;47.502;19.148;2023-02-28T06:51:11;8.30;;;5.00;;
76978;SDS011;65911;47.502;19.148;2023-02-28T06:54:17;9.85;;;5.35;;
76978;SDS011;65911;47.502;19.148;2023-02-28T06:57:19;10.00;;;5.38;;
76978;SDS011;65911;47.502;19.148;2023-02-28T07:00:21;8.25;;;5.32;;
76978;SDS011;65911;47.502;19.148;2023-02-28T07:03:23;8.67;;;4.40;;
76978;SDS011;65911;47.502;19.148;2023-02-28T07:06:26;9.68;;;5.30;;
76978;SDS011;65911;47.502;19.148;2023-02-28T07:09:29;9.88;;;5.10;;
76978;SDS011;65911;47.502;19.148;2023-02-28T07:12:32;8.93;;;5.30;;
76978;SDS011;65911;47.502;19.148;2023-02-28T07:15:35;7.85;;;4.82;;
76978;SDS011;65911;47.502;19.148;2023-02-28T07:18:44;8.43;;;5.00;;
76978;SDS011;65911;47.502;19.148;2023-02-28T07:21:46;10.30;;;5.03;;
76978;SDS011;65911;47.502;19.148;2023-02-28T07:24:48;8.35;;;4.78;;
76978;SDS011;65911;47.502;19.148;2023-02-28T07:27:51;9.60;;;5.28;;
76978;SDS011;65911;47.502;19.148;2023-02-28T07:30:53;8.55;;;4.65;;
76978;SDS011;65911;47.502;19.148;2023-02-28T07:33:55;10.97;;;5.10;;
76978;SDS011;65911;47.502;19.148;2023-02-28T07:36:58;9.45;;;5.13;;
76978;SDS011;65911;47.502;19.148;2023-02-28T07:40:00;9.20;;;4.90;;
76978;SDS011;65911;47.502;19.148;2023-02-28T07:43:06;9.17;;;5.23;;
76978;SDS011;65911;47.502;19.148;2023-02-28T07:46:09;9.48;;;4.68;;
76978;SDS011;65911;47.502;19.148;2023-02-28T07:49:13;6.78;;;4.68;;
76978;SDS011;65911;47.502;19.148;2023-02-28T07:52:18;8.80;;;4.53;;
76978;SDS011;65911;47.502;19.148;2023-02-28T07:55:23;9.73;;;4.72;;
76978;SDS011;65911;47.502;19.148;2023-02-28T07:58:27;9.30;;;4.47;;
76978;SDS011;65911;47.502;19.148;2023-02-28T08:01:31;7.60;;;3.97;;
76978;SDS011;65911;47.502;19.148;2023-02-28T08:04:34;9.50;;;5.00;;
76978;SDS011;65911;47.502;19.148;2023-02-28T08:07:37;9.13;;;5.15;;
76978;SDS011;65911;47.502;19.148;2023-02-28T08:10:40;9.98;;;4.20;;
76978;SDS011;65911;47.502;19.148;2023-02-28T08:13:43;8.17;;;4.90;;
76978;SDS011;65911;47.502;19.148;2023-02-28T08:16:47;8.82;;;4.32;;
76978;SDS011;65911;47.502;19.148;2023-02-28T08:19:49;10.40;;;4.95;;
76978;SDS011;65911;47.502;19.148;2023-02-28T08:22:52;9.18;;;4.55;;
76978;SDS011;65911;47.502;19.148;2023-02-28T08:25:55;7.18;;;4.63;;
76978;SDS011;65911;47.502;19.148;2023-02-28T08:28:57;9.77;;;4.70;;
76978;SDS011;65911;47.502;19.148;2023-02-28T08:32:08;6.63;;;4.50;;
76978;SDS011;65911;47.502;19.148;2023-02-28T08:35:30;9.03;;;4.03;;
76978;SDS011;65911;47.502;19.148;2023-02-28T08:38:32;7.97;;;4.63;;
76978;SDS011;65911;47.502;19.148;2023-02-28T08:41:34;8.77;;;4.15;;
76978;SDS011;65911;47.502;19.148;2023-02-28T08:44:36;6.50;;;4.40;;
76978;SDS011;65911;47.502;19.148;2023-02-28T08:47:39;8.60;;;3.95;;
76978;SDS011;65911;47.502;19.148;2023-02-28T08:50:41;6.30;;;3.75;;
76978;SDS011;65911;47.502;19.148;2023-02-28T08:53:45;6.90;;;4.15;;
76978;SDS011;65911;47.502;19.148;2023-02-28T08:56:48;8.65;;;3.80;;
76978;SDS011;65911;47.502;19.148;2023-02-28T08:59:50;6.25;;;3.88;;
76978;SDS011;65911;47.502;19.148;2023-02-28T09:02:53;11.63;;;3.90;;
76978;SDS011;65911;47.502;19.148;2023-02-28T09:06:00;7.77;;;4.20;;
76978;SDS011;65911;47.502;19.148;2023-02-28T09:09:04;6.63;;;3.53;;
76978;SDS011;65911;47.502;19.148;2023-02-28T09:12:08;7.50;;;3.58;;
76978;SDS011;65911;47.502;19.148;2023-02-28T09:15:10;7.20;;;4.03;;
76978;SDS011;65911;47.502;19.148;2023-02-28T09:18:12;8.25;;;3.80;;
76978;SDS011;65911;47.502;19.148;2023-02-28T09:21:16;6.32;;;4.25;;
76978;SDS011;65911;47.502;19.148;2023-02-28T09:24:19;7.18;;;3.70;;
76978;SDS011;65911;47.502;19.148;2023-02-28T09:27:22;7.63;;;3.83;;
76978;SDS011;65911;47.502;19.148;2023-02-28T09:30:30;7.38;;;3.40;;
76978;SDS011;65911;47.502;19.148;2023-02-28T09:33:32;8.13;;;4.05;;
76978;SDS011;65911;47.502;19.148;2023-02-28T09:36:36;8.43;;;4.50;;
76978;SDS011;65911;47.502;19.148;2023-02-28T09:39:47;6.10;;;4.00;;
76978;SDS011;65911;47.502;19.148;2023-02-28T09:42:50;7.43;;;4.00;;
76978;SDS011;65911;47.502;19.148;2023-02-28T09:49:23;8.55;;;3.60;;
76978;SDS011;65911;47.502;19.148;2023-02-28T09:52:28;7.65;;;4.47;;
76978;SDS011;65911;47.502;19.148;2023-02-28T09:55:45;6.25;;;3.90;;
76978;SDS011;65911;47.502;19.148;2023-02-28T10:05:05;6.53;;;3.92;;
76978;SDS011;65911;47.502;19.148;2023-02-28T10:08:17;6.67;;;3.93;;
76978;SDS011;65911;47.502;19.148;2023-02-28T10:11:27;6.20;;;4.30;;
76978;SDS011;65911;47.502;19.148;2023-02-28T10:14:34;7.53;;;3.70;;
76978;SDS011;65911;47.502;19.148;2023-02-28T10:17:39;7.03;;;3.67;;
76978;SDS011;65911;47.502;19.148;2023-02-28T10:20:59;7.57;;;3.83;;
76978;SDS011;65911;47.502;19.148;2023-02-28T10:24:23;9.18;;;4.28;;
76978;SDS011;65911;47.502;19.148;2023-02-28T10:27:31;6.50;;;4.05;;
76978;SDS011;65911;47.502;19.148;2023-02-28T10:30:34;6.72;;;3.90;;
76978;SDS011;65911;47.502;19.148;2023-02-28T10:33:42;8.50;;;3.88;;
76978;SDS011;65911;47.502;19.148;2023-02-28T10:36:45;7.35;;;4.38;;
76978;SDS011;65911;47.502;19.148;2023-02-28T10:39:47;8.80;;;3.90;;
76978;SDS011;65911;47.502;19.148;2023-02-28T10:49:19;5.70;;;3.50;;
76978;SDS011;65911;47.502;19.148;2023-02-28T10:52:36;9.27;;;3.63;;
76978;SDS011;65911;47.502;19.148;2023-02-28T10:55:42;5.80;;;3.80;;
76978;SDS011;65911;47.502;19.148;2023-02-28T11:05:43;6.15;;;3.63;;
76978;SDS011;65911;47.502;19.148;2023-02-28T11:08:47;6.90;;;4.18;;
76978;SDS011;65911;47.502;19.148;2023-02-28T11:12:01;5.70;;;3.83;;
76978;SDS011;65911;47.502;19.148;2023-02-28T11:15:24;7.78;;;4.15;;
76978;SDS011;65911;47.502;19.148;2023-02-28T11:18:47;5.40;;;3.70;;
76978;SDS011;65911;47.502;19.148;2023-02-28T11:22:00;11.47;;;4.10;;
76978;SDS011;65911;47.502;19.148;2023-02-28T11:25:46;7.25;;;3.70;;
76978;SDS011;65911;47.502;19.148;2023-02-28T11:28:34;8.25;;;4.55;;
76978;SDS011;65911;47.502;19.148;2023-02-28T11:31:38;7.25;;;3.90;;
76978;SDS011;65911;47.502;19.148;2023-02-28T11:34:41;6.10;;;3.17;;
76978;SDS011;65911;47.502;19.148;2023-02-28T11:37:45;6.28;;;4.13;;
76978;SDS011;65911;47.502;19.148;2023-02-28T11:54:17;8.03;;;3.80;;
76978;SDS011;65911;47.502;19.148;2023-02-28T11:57:33;5.90;;;3.30;;
76978;SDS011;65911;47.502;19.148;2023-02-28T12:00:54;7.30;;;3.20;;
76978;SDS011;65911;47.502;19.148;2023-02-28T12:07:37;5.85;;;3.35;;
76978;SDS011;65911;47.502;19.148;2023-02-28T12:21:04;6.32;;;3.35;;
76978;SDS011;65911;47.502;19.148;2023-02-28T12:27:15;8.67;;;3.90;;
76978;SDS011;65911;47.502;19.148;2023-02-28T12:30:21;7.30;;;3.80;;
76978;SDS011;65911;47.502;19.148;2023-02-28T12:33:27;6.93;;;3.60;;
76978;SDS011;65911;47.502;19.148;2023-02-28T12:36:34;6.15;;;3.92;;
76978;SDS011;65911;47.502;19.148;2023-02-28T12:39:40;9.63;;;3.60;;
76978;SDS011;65911;47.502;19.148;2023-02-28T12:42:52;8.05;;;4.05;;
76978;SDS011;65911;47.502;19.148;2023-02-28T12:46:00;8.38;;;3.70;;
76978;SDS011;65911;47.502;19.148;2023-02-28T12:49:12;6.57;;;3.73;;
76978;SDS011;65911;47.502;19.148;2023-02-28T12:55:49;5.40;;;3.22;;
76978;SDS011;65911;47.502;19.148;2023-02-28T12:59:01;5.47;;;3.60;;
76978;SDS011;65911;47.502;19.148;2023-02-28T13:02:21;6.80;;;3.00;;
76978;SDS011;65911;47.502;19.148;2023-02-28T13:09:01;7.18;;;3.25;;
76978;SDS011;65911;47.502;19.148;2023-02-28T13:12:14;5.82;;;3.10;;
76978;SDS011;65911;47.502;19.148;2023-02-28T13:15:18;7.82;;;3.67;;
76978;SDS011;65911;47.502;19.148;2023-02-28T13:21:43;5.70;;;2.97;;
76978;SDS011;65911;47.502;19.148;2023-02-28T13:24:50;6.47;;;3.40;;
76978;SDS011;65911;47.502;19.148;2023-02-28T13:27:55;4.82;;;3.28;;
76978;SDS011;65911;47.502;19.148;2023-02-28T13:31:05;6.10;;;3.43;;
76978;SDS011;65911;47.502;19.148;2023-02-28T13:34:13;7.20;;;3.08;;
76978;SDS011;65911;47.502;19.148;2023-02-28T13:40:32;5.28;;;3.13;;
76978;SDS011;65911;47.502;19.148;2023-02-28T13:43:59;8.95;;;3.95;;
76978;SDS011;65911;47.502;19.148;2023-02-28T13:47:22;5.07;;;3.30;;
76978;SDS011;65911;47.502;19.148;2023-02-28T13:53:39;6.87;;;3.50;;
76978;SDS011;65911;47.502;19.148;2023-02-28T14:00:35;7.90;;;3.15;;
76978;SDS011;65911;47.502;19.148;2023-02-28T14:07:05;6.63;;;3.35;;
76978;SDS011;65911;47.502;19.148;2023-02-28T14:10:08;6.90;;;3.47;;
76978;SDS011;65911;47.502;19.148;2023-02-28T14:16:20;5.82;;;3.58;;
76978;SDS011;65911;47.502;19.148;2023-02-28T14:19:29;6.65;;;3.05;;
76978;SDS011;65911;47.502;19.148;2023-02-28T14:25:58;7.63;;;4.10;;
76978;SDS011;65911;47.502;19.148;2023-02-28T14:29:15;7.55;;;3.72;;
76978;SDS011;65911;47.502;19.148;2023-02-28T14:32:25;7.35;;;3.53;;
76978;SDS011;65911;47.502;19.148;2023-02-28T14:38:55;6.50;;;3.13;;
76978;SDS011;65911;47.502;19.148;2023-02-28T14:41:59;4.63;;;3.22;;
76978;SDS011;65911;47.502;19.148;2023-02-28T14:45:06;5.03;;;3.55;;
76978;SDS011;65911;47.502;19.148;2023-02-28T14:48:18;5.50;;;3.85;;
76978;SDS011;65911;47.502;19.148;2023-02-28T14:51:22;7.15;;;4.18;;
76978;SDS011;65911;47.502;19.148;2023-02-28T14:54:25;6.93;;;3.78;;
76978;SDS011;65911;47.502;19.148;2023-02-28T14:57:29;6.20;;;3.93;;
76978;SDS011;65911;47.502;19.148;2023-02-28T15:00:36;7.50;;;4.18;;
76978;SDS011;65911;47.502;19.148;2023-02-28T15:03:41;6.05;;;4.00;;
76978;SDS011;65911;47.502;19.148;2023-02-28T15:06:46;11.13;;;4.30;;
76978;SDS011;65911;47.502;19.148;2023-02-28T15:10:25;7.13;;;4.28;;
76978;SDS011;65911;47.502;19.148;2023-02-28T15:13:35;7.72;;;3.88;;
76978;SDS011;65911;47.502;19.148;2023-02-28T15:16:42;8.27;;;4.57;;
76978;SDS011;65911;47.502;19.148;2023-02-28T15:19:47;9.63;;;4.22;;
76978;SDS011;65911;47.502;19.148;2023-02-28T15:22:52;7.97;;;4.40;;
76978;SDS011;65911;47.502;19.148;2023-02-28T15:25:56;6.22;;;4.10;;
76978;SDS011;65911;47.502;19.148;2023-02-28T15:29:00;7.67;;;3.97;;
76978;SDS011;65911;47.502;19.148;2023-02-28T15:32:40;8.85;;;4.20;;
76978;SDS011;65911;47.502;19.148;2023-02-28T15:35:43;6.38;;;3.72;;
76978;SDS011;65911;47.502;19.148;2023-02-28T15:38:46;8.53;;;4.70;;
76978;SDS011;65911;47.502;19.148;2023-02-28T15:42:09;7.18;;;4.15;;
76978;SDS011;65911;47.502;19.148;2023-02-28T15:46:02;7.78;;;4.43;;
76978;SDS011;65911;47.502;19.148;2023-02-28T15:48:54;7.00;;;4.40;;
76978;SDS011;65911;47.502;19.148;2023-02-28T15:51:58;7.82;;;4.32;;
76978;SDS011;65911;47.502;19.148;2023-02-28T15:55:16;9.20;;;4.57;;
76978;SDS011;65911;47.502;19.148;2023-02-28T15:58:21;7.82;;;4.55;;
76978;SDS011;65911;47.502;19.148;2023-02-28T16:01:24;8.07;;;5.10;;
76978;SDS011;65911;47.502;19.148;2023-02-28T16:04:30;6.97;;;4.35;;
76978;SDS011;65911;47.502;19.148;2023-02-28T16:07:37;6.50;;;4.30;;
76978;SDS011;65911;47.502;19.148;2023-02-28T16:10:40;10.13;;;5.00;;
76978;SDS011;65911;47.502;19.148;2023-02-28T16:13:42;10.27;;;4.80;;
76978;SDS011;65911;47.502;19.148;2023-02-28T16:16:46;8.43;;;4.82;;
76978;SDS011;65911;47.502;19.148;2023-02-28T16:19:50;7.30;;;4.38;;
76978;SDS011;65911;47.502;19.148;2023-02-28T16:22:52;6.78;;;4.30;;
76978;SDS011;65911;47.502;19.148;2023-02-28T16:25:55;7.35;;;4.38;;
76978;SDS011;65911;47.502;19.148;2023-02-28T16:28:57;7.32;;;4.40;;
76978;SDS011;65911;47.502;19.148;2023-02-28T16:31:59;7.57;;;4.27;;
76978;SDS011;65911;47.502;19.148;2023-02-28T16:35:02;6.75;;;4.70;;
76978;SDS011;65911;47.502;19.148;2023-02-28T16:38:04;7.63;;;4.53;;
76978;SDS011;65911;47.502;19.148;2023-02-28T16:41:07;6.90;;;4.87;;
76978;SDS011;65911;47.502;19.148;2023-02-28T16:44:26;8.10;;;4.90;;
76978;SDS011;65911;47.502;19.148;2023-02-28T16:47:29;6.53;;;4.43;;
76978;SDS011;65911;47.502;19.148;2023-02-28T16:50:33;8.20;;;5.15;;
76978;SDS011;65911;47.502;19.148;2023-02-28T16:53:35;9.50;;;4.88;;
76978;SDS011;65911;47.502;19.148;2023-02-28T16:56:38;8.68;;;4.85;;
76978;SDS011;65911;47.502;19.148;2023-02-28T16:59:44;9.13;;;4.80;;
76978;SDS011;65911;47.502;19.148;2023-02-28T17:02:46;7.20;;;4.80;;
76978;SDS011;65911;47.502;19.148;2023-02-28T17:05:49;8.25;;;5.32;;
76978;SDS011;65911;47.502;19.148;2023-02-28T17:08:51;7.35;;;5.00;;
76978;SDS011;65911;47.502;19.148;2023-02-28T17:11:53;8.77;;;5.03;;
76978;SDS011;65911;47.502;19.148;2023-02-28T17:14:56;8.73;;;4.95;;
76978;SDS011;65911;47.502;19.148;2023-02-28T17:17:58;8.27;;;5.05;;
76978;SDS011;65911;47.502;19.148;2023-02-28T17:21:00;8.88;;;5.05;;
76978;SDS011;65911;47.502;19.148;2023-02-28T17:24:04;7.93;;;4.85;;
76978;SDS011;65911;47.502;19.148;2023-02-28T17:27:09;7.78;;;5.13;;
76978;SDS011;65911;47.502;19.148;2023-02-28T17:30:13;9.35;;;5.72;;
76978;SDS011;65911;47.502;19.148;2023-02-28T17:33:17;8.33;;;4.93;;
76978;SDS011;65911;47.502;19.148;2023-02-28T17:36:24;8.57;;;5.38;;
76978;SDS011;65911;47.502;19.148;2023-02-28T17:39:30;10.10;;;5.57;;
76978;SDS011;65911;47.502;19.148;2023-02-28T17:42:33;8.63;;;5.43;;
76978;SDS011;65911;47.502;19.148;2023-02-28T17:45:35;8.60;;;5.10;;
76978;SDS011;65911;47.502;19.148;2023-02-28T17:48:37;10.50;;;5.70;;
76978;SDS011;65911;47.502;19.148;2023-02-28T17:51:39;7.60;;;5.15;;
76978;SDS011;65911;47.502;19.148;2023-02-28T17:54:42;11.35;;;5.60;;
76978;SDS011;65911;47.502;19.148;2023-02-28T17:57:45;7.93;;;5.13;;
76978;SDS011;65911;47.502;19.148;2023-02-28T18:00:47;8.07;;;5.13;;
76978;SDS011;65911;47.502;19.148;2023-02-28T18:03:55;7.80;;;5.10;;
76978;SDS011;65911;47.502;19.148;2023-02-28T18:06:57;9.05;;;4.90;;
76978;SDS011;65911;47.502;19.148;2023-02-28T18:10:01;8.18;;;5.53;;
76978;SDS011;65911;47.502;19.148;2023-02-28T18:13:05;8.93;;;5.80;;
76978;SDS011;65911;47.502;19.148;2023-02-28T18:16:07;9.25;;;5.50;;
76978;SDS011;65911;47.502;19.148;2023-02-28T18:19:10;10.73;;;5.70;;
76978;SDS011;65911;47.502;19.148;2023-02-28T18:22:16;8.05;;;5.60;;
76978;SDS011;65911;47.502;19.148;2023-02-28T18:25:18;9.27;;;5.82;;
76978;SDS011;65911;47.502;19.148;2023-02-28T18:28:21;8.93;;;5.65;;
76978;SDS011;65911;47.502;19.148;2023-02-28T18:31:23;9.40;;;5.07;;
76978;SDS011;65911;47.502;19.148;2023-02-28T18:34:25;7.47;;;4.87;;
76978;SDS011;65911;47.502;19.148;2023-02-28T18:37:29;8.60;;;4.82;;
76978;SDS011;65911;47.502;19.148;2023-02-28T18:40:31;9.23;;;5.05;;
76978;SDS011;65911;47.502;19.148;2023-02-28T18:43:34;8.83;;;5.80;;
76978;SDS011;65911;47.502;19.148;2023-02-28T18:46:39;10.00;;;5.78;;
76978;SDS011;65911;47.502;19.148;2023-02-28T18:49:41;8.63;;;5.53;;
76978;SDS011;65911;47.502;19.148;2023-02-28T18:52:43;9.57;;;5.80;;
76978;SDS011;65911;47.502;19.148;2023-02-28T18:55:45;8.65;;;6.00;;
76978;SDS011;65911;47.502;19.148;2023-02-28T18:58:48;10.75;;;6.10;;
76978;SDS011;65911;47.502;19.148;2023-02-28T19:01:51;12.07;;;5.82;;
76978;SDS011;65911;47.502;19.148;2023-02-28T19:04:53;11.63;;;5.50;;
76978;SDS011;65911;47.502;19.148;2023-02-28T19:07:55;10.88;;;6.35;;
76978;SDS011;65911;47.502;19.148;2023-02-28T19:10:57;10.88;;;6.30;;
76978;SDS011;65911;47.502;19.148;2023-02-28T19:14:00;11.43;;;6.40;;
76978;SDS011;65911;47.502;19.148;2023-02-28T19:17:03;13.40;;;6.47;;
76978;SDS011;65911;47.502;19.148;2023-02-28T19:20:06;9.52;;;6.30;;
76978;SDS011;65911;47.502;19.148;2023-02-28T19:23:09;9.75;;;6.53;;
76978;SDS011;65911;47.502;19.148;2023-02-28T19:26:18;10.75;;;7.30;;
76978;SDS011;65911;47.502;19.148;2023-02-28T19:29:23;12.60;;;6.90;;
76978;SDS011;65911;47.502;19.148;2023-02-28T19:32:25;10.75;;;6.95;;
76978;SDS011;65911;47.502;19.148;2023-02-28T19:35:28;12.27;;;6.67;;
76978;SDS011;65911;47.502;19.148;2023-02-28T19:38:30;10.13;;;6.85;;
76978;SDS011;65911;47.502;19.148;2023-02-28T19:41:32;11.73;;;6.88;;
76978;SDS011;65911;47.502;19.148;2023-02-28T19:44:34;12.40;;;7.10;;
76978;SDS011;65911;47.502;19.148;2023-02-28T19:47:37;12.38;;;6.72;;
76978;SDS011;65911;47.502;19.148;2023-02-28T19:50:41;12.38;;;7.45;;
76978;SDS011;65911;47.502;19.148;2023-02-28T19:53:43;13.65;;;6.97;;
76978;SDS011;65911;47.502;19.148;2023-02-28T19:56:45;13.15;;;7.32;;
76978;SDS011;65911;47.502;19.148;2023-02-28T19:59:48;14.02;;;8.20;;
76978;SDS011;65911;47.502;19.148;2023-02-28T20:02:52;12.98;;;7.68;;